Time;durP1;ratioP1;P1;durP2;ratioP2;P2;SDS_P1;SDS_P2;PMS_P1;PMS_P2;Temp;Humidity;BMP_temperature;BMP_pressure;BME280_temperature;BME280_humidity;BME280_pressure;Samples;Min_cycle;Max_cycle;Signal;HPM_P1;HPM_P2
2022/09/26 00:00:08;;;;;;;12.60;9.20;;;;;;;10.56;86.83;99180.82;107613;1277;137425;-91
2022/09/26 00:02:38;;;;;;;15.90;9.30;;;;;;;10.58;86.79;99183.77;107787;1277;22557;-92
2022/09/26 00:05:05;;;;;;;;;;;;;;;10.59;86.53;99183.73;107436;1277;139061;-92
2022/09/26 00:07:32;;;;;;;12.40;8.10;;;;;;;10.61;86.39;99179.11;107787;1274;22595;-92
2022/09/26 00:09:59;;;;;;;13.30;8.70;;;;;;;10.62;85.99;99179.23;107561;1274;22633;-92
2022/09/26 00:12:26;;;;;;;11.10;8.30;;;;;;;10.65;85.90;99177.61;107650;1276;137345;-91
2022/09/26 00:14:53;;;;;;;12.10;9.00;;;;;;;10.68;85.73;99182.45;107774;1274;22594;-92
2022/09/26 00:17:19;;;;;;;17.30;8.00;;;;;;;10.70;85.32;99185.50;107782;1277;137122;-92
2022/09/26 00:19:47;;;;;;;12.50;8.40;;;;;;;10.72;84.98;99184.31;108423;1277;23295;-92
2022/09/26 00:22:14;;;;;;;10.30;7.90;;;;;;;10.73;84.71;99178.22;107568;1277;137535;-91
2022/09/26 00:24:41;;;;;;;12.50;8.50;;;;;;;10.75;84.57;99185.53;107912;1276;22565;-91
2022/09/26 00:27:08;;;;;;;10.30;8.50;;;;;;;10.77;84.31;99181.19;107526;1277;25611;-92
2022/09/26 00:29:35;;;;;;;9.90;7.90;;;;;;;10.79;84.08;99183.00;107128;1277;138636;-92
2022/09/26 00:32:02;;;;;;;9.70;7.90;;;;;;;10.81;84.00;99184.25;107244;1277;22603;-93
2022/09/26 00:34:28;;;;;;;10.70;7.80;;;;;;;10.84;83.58;99182.51;107258;1277;137936;-91
2022/09/26 00:36:55;;;;;;;11.20;8.20;;;;;;;10.86;83.73;99172.59;107291;1275;22675;-92
2022/09/26 00:39:22;;;;;;;11.50;7.80;;;;;;;10.88;83.61;99173.69;107387;1278;25103;-92
2022/09/26 00:41:53;;;;;;;10.80;8.30;;;;;;;10.86;83.74;99171.17;107254;1280;138194;-92
2022/09/26 00:44:39;;;;;;;10.60;7.70;;;;;;;10.84;83.67;99172.52;106911;1281;22616;-92
2022/09/26 00:47:06;;;;;;;10.20;7.90;;;;;;;10.82;83.95;99174.49;107276;1280;138282;-92
2022/09/26 00:49:35;;;;;;;10.20;7.80;;;;;;;10.83;84.01;99173.55;107203;1280;22599;-92
2022/09/26 00:52:13;;;;;;;12.50;8.00;;;;;;;10.82;84.39;99174.00;108487;1280;22458;-93
2022/09/26 00:54:44;;;;;;;10.50;8.50;;;;;;;10.79;84.61;99177.22;108875;1281;23221;-93
2022/09/26 00:57:14;;;;;;;10.70;8.10;;;;;;;10.74;84.48;99174.20;109089;1279;22448;-93
2022/09/26 00:59:45;;;;;;;14.00;9.20;;;;;;;10.71;84.68;99173.52;108936;1278;138259;-94
2022/09/26 01:02:12;;;;;;;11.80;9.50;;;;;;;10.69;84.77;99172.58;109131;1279;22982;-93
2022/09/26 01:04:39;;;;;;;11.00;8.40;;;;;;;10.66;84.75;99171.45;107762;1281;138396;-91
2022/09/26 01:07:08;;;;;;;11.00;8.80;;;;;;;10.63;84.82;99166.59;108520;1280;22691;-92
2022/09/26 01:09:36;;;;;;;11.90;8.30;;;;;;;10.63;85.19;99167.73;107153;1280;22574;-92
2022/09/26 01:12:02;;;;;;;;;;;;;;;10.65;85.43;99167.52;106875;1278;138378;-92
2022/09/26 01:14:29;;;;;;;14.00;8.70;;;;;;;10.65;85.54;99169.21;107252;1277;22674;-91
2022/09/26 01:16:56;;;;;;;15.40;9.00;;;;;;;10.62;85.81;99167.73;107004;1278;138385;-92
2022/09/26 01:19:45;;;;;;;12.80;9.30;;;;;;;10.58;85.87;99165.53;107782;1276;23288;-92
2022/09/26 01:22:32;;;;;;;11.30;9.10;;;;;;;10.55;86.14;99164.31;107148;1279;138780;-86
2022/09/26 01:25:19;;;;;;;11.90;8.90;;;;;;;10.53;86.72;99168.89;107578;1277;22522;-86
2022/09/26 01:28:01;;;;;;;10.60;8.40;;;;;;;10.52;86.89;99162.68;107765;1277;23431;-86
2022/09/26 01:30:50;;;;;;;12.90;9.40;;;;;;;10.51;87.03;99165.29;107414;1276;138103;-87
2022/09/26 01:33:16;;;;;;;13.50;9.00;;;;;;;10.47;87.09;99169.13;107371;1278;24777;-87
2022/09/26 01:36:07;;;;;;;12.40;10.00;;;;;;;10.44;87.45;99170.70;107159;1277;138331;-87
2022/09/26 01:38:41;;;;;;;15.70;10.80;;;;;;;10.44;87.48;99174.79;107402;1277;22595;-87
2022/09/26 01:41:21;;;;;;;11.40;9.40;;;;;;;10.45;87.53;99171.03;107312;1277;138145;-87
2022/09/26 01:44:00;;;;;;;12.90;9.50;;;;;;;10.45;87.84;99166.35;107329;1277;23788;-87
2022/09/26 01:46:57;;;;;;;13.50;10.20;;;;;;;10.44;87.72;99169.88;107272;1277;138229;-87
2022/09/26 01:49:34;;;;;;;12.50;9.50;;;;;;;10.41;87.68;99165.06;107627;1277;22768;-86
2022/09/26 01:52:07;;;;;;;;;;;;;;;10.41;87.63;99161.80;107319;1278;22565;-86
2022/09/26 01:54:47;;;;;;;13.70;10.40;;;;;;;10.39;87.78;99157.66;109392;1276;22423;-87
2022/09/26 01:57:33;;;;;;;15.40;11.10;;;;;;;10.38;87.61;99152.70;109370;1277;22456;-86
2022/09/26 02:00:01;;;;;;;13.00;9.30;;;;;;;10.37;87.73;99160.55;107872;1278;138573;-87
2022/09/26 02:02:30;;;;;;;13.10;8.40;;;;;;;10.37;87.88;99159.63;107372;1278;22726;-87
2022/09/26 02:05:03;;;;;;;14.40;10.20;;;;;;;10.38;87.61;99158.16;107768;1277;138204;-87
2022/09/26 02:07:54;;;;;;;12.80;9.50;;;;;;;10.38;87.85;99156.25;107245;1277;25373;-86
2022/09/26 02:11:00;;;;;;;11.00;9.20;;;;;;;10.38;87.97;99153.52;107294;1277;139703;-86
2022/09/26 02:13:51;;;;;;;12.90;9.40;;;;;;;10.39;87.84;99156.68;107294;1283;23315;-88
2022/09/26 02:16:25;;;;;;;11.10;9.20;;;;;;;10.37;88.16;99159.19;106729;1287;138556;-86
2022/09/26 02:18:56;;;;;;;11.40;8.80;;;;;;;10.35;88.23;99157.27;106989;1283;22636;-86
2022/09/26 02:21:23;;;;;;;10.90;9.30;;;;;;;10.36;88.17;99159.02;107389;1283;22831;-86
2022/09/26 02:23:51;;;;;;;11.80;8.90;;;;;;;10.35;88.18;99154.33;106425;1283;139235;-88
2022/09/26 02:26:20;;;;;;;11.60;8.20;;;;;;;10.34;88.45;99155.35;108565;1284;22471;-87
2022/09/26 02:28:47;;;;;;;;;;;;;;;10.32;88.47;99157.14;108471;1283;139591;-87
2022/09/26 02:31:20;;;;;;;11.00;8.70;;;;;;;10.29;88.62;99151.83;108352;1283;23525;-87
2022/09/26 02:33:49;;;;;;;10.60;8.80;;;;;;;10.27;88.91;99157.11;106882;1283;22645;-87
2022/09/26 02:36:17;;;;;;;11.10;8.00;;;;;;;10.27;88.87;99147.09;106543;1284;138780;-86
2022/09/26 02:38:43;;;;;;;11.50;8.90;;;;;;;10.26;88.88;99141.52;106637;1281;22561;-86
2022/09/26 02:42:15;;;;;;;11.30;9.00;;;;;;;10.26;89.14;99139.08;106820;1283;138351;-86
2022/09/26 02:45:10;;;;;;;15.20;8.40;;;;;;;10.24;89.04;99143.00;108874;1283;22630;-86
2022/09/26 02:47:56;;;;;;;11.80;8.60;;;;;;;10.23;89.32;99144.26;108749;1276;137225;-87
2022/09/26 02:50:30;;;;;;;10.90;8.60;;;;;;;10.23;89.39;99137.55;107691;1274;24714;-86
2022/09/26 02:56:28;;;;;;;15.30;9.50;;;;;;;10.25;89.62;99135.56;101927;1309;545107;-67
2022/09/26 02:59:10;;;;;;;12.10;9.30;;;;;;;10.23;89.56;99133.14;103740;1290;139721;-67
2022/09/26 03:01:42;;;;;;;10.40;8.90;;;;;;;10.23;89.58;99129.72;103725;1290;24317;-67
2022/09/26 03:04:15;;;;;;;10.80;8.90;;;;;;;10.22;89.72;99126.29;107719;1289;22641;-67
2022/09/26 03:06:43;;;;;;;14.80;9.30;;;;;;;10.20;89.78;99119.73;107833;1290;22493;-68
2022/09/26 03:09:11;;;;;;;12.20;9.80;;;;;;;10.19;90.02;99113.84;107184;1285;756089;-68
2022/09/26 03:11:39;;;;;;;11.10;9.40;;;;;;;10.17;89.97;99104.05;107543;1287;137821;-69
2022/09/26 03:14:06;;;;;;;11.00;9.10;;;;;;;10.16;90.23;99102.63;107589;1286;22657;-68
2022/09/26 03:16:33;;;;;;;;;;;;;;;10.16;90.19;99098.77;107748;1288;139100;-69
2022/09/26 03:19:09;;;;;;;12.00;8.60;;;;;;;10.14;90.05;99098.42;108236;1286;22518;-68
2022/09/26 03:21:36;;;;;;;12.10;9.00;;;;;;;10.12;90.33;99102.83;108153;1286;22468;-69
2022/09/26 03:24:03;;;;;;;14.00;9.20;;;;;;;10.12;90.40;99102.06;108187;1286;139477;-69
2022/09/26 03:26:31;;;;;;;10.70;8.90;;;;;;;10.12;90.55;99098.09;108299;1284;22590;-69
2022/09/26 03:28:59;;;;;;;11.30;8.90;;;;;;;10.13;90.43;99095.26;108062;1286;138078;-69
2022/09/26 03:31:27;;;;;;;10.90;9.30;;;;;;;10.13;90.68;99096.13;108147;1286;22555;-69
2022/09/26 03:33:59;;;;;;;10.80;9.00;;;;;;;10.12;90.71;99098.14;108151;1287;22511;-69
2022/09/26 03:36:26;;;;;;;;;;;;;;;10.11;90.85;99106.67;108174;1286;139645;-69
2022/09/26 03:38:53;;;;;;;12.70;10.10;;;;;;;10.09;91.07;99108.05;108269;1286;22501;-69
2022/09/26 03:41:38;;;;;;;11.00;9.40;;;;;;;10.09;91.20;99121.34;108157;1287;138237;-69
2022/09/26 03:44:12;;;;;;;12.10;9.90;;;;;;;10.09;91.03;99128.42;108155;1286;23240;-69
2022/09/26 03:47:12;;;;;;;11.40;8.90;;;;;;;10.10;91.32;99123.35;108432;1282;138285;-68
2022/09/26 03:49:40;;;;;;;11.50;9.40;;;;;;;10.11;91.31;99117.79;108495;1282;22550;-70
2022/09/26 03:52:09;;;;;;;11.50;9.00;;;;;;;10.13;91.29;99116.98;108374;1284;22610;-69
2022/09/26 03:54:36;;;;;;;12.20;9.30;;;;;;;10.15;91.43;99117.16;108383;1283;138246;-68
2022/09/26 03:57:03;;;;;;;10.90;8.60;;;;;;;10.16;91.31;99117.50;108478;1284;22478;-68
2022/09/26 03:59:31;;;;;;;11.40;8.30;;;;;;;10.17;91.22;99114.95;108336;1282;138982;-68
2022/09/26 04:01:58;;;;;;;11.30;8.60;;;;;;;10.18;91.12;99116.71;109124;1276;23278;-68
2022/09/26 04:04:25;;;;;;;11.10;8.90;;;;;;;10.18;91.13;99115.90;109239;1274;138720;-68
2022/09/26 04:06:52;;;;;;;10.10;8.30;;;;;;;10.20;90.97;99114.23;109248;1275;22498;-69
2022/09/26 04:09:19;;;;;;;;;;;;;;;10.22;91.08;99111.95;109379;1274;22525;-67
2022/09/26 04:11:49;;;;;;;11.80;9.30;;;;;;;10.23;90.91;99112.89;109016;1277;125046;-67
2022/09/26 04:14:17;;;;;;;10.90;9.00;;;;;;;10.24;90.92;99111.54;109385;1274;23378;-66
2022/09/26 04:16:46;;;;;;;11.50;8.40;;;;;;;10.23;91.09;99108.16;109104;1274;138173;-67
2022/09/26 04:19:21;;;;;;;11.10;8.90;;;;;;;10.23;90.99;99109.67;109336;1275;22472;-67
2022/09/26 04:21:49;;;;;;;10.20;8.20;;;;;;;10.21;90.89;99106.13;109375;1273;22505;-67
2022/09/26 04:24:18;;;;;;;14.30;9.00;;;;;;;10.19;90.96;99100.29;109106;1274;138749;-67
2022/09/26 04:26:45;;;;;;;11.30;9.00;;;;;;;10.19;91.07;99100.06;109217;1274;22911;-70
2022/09/26 04:29:12;;;;;;;;;;;;;;;10.17;90.97;99097.86;109124;1276;138009;-71
2022/09/26 04:32:05;;;;;;;9.40;7.90;;;;;;;10.16;90.85;99097.89;109233;1274;22420;-70
2022/09/26 04:34:40;;;;;;;11.70;7.50;;;;;;;10.15;91.04;99099.14;109042;1276;139229;-70
2022/09/26 04:37:08;;;;;;;10.30;7.90;;;;;;;10.16;90.88;99097.79;109200;1277;23005;-69
2022/09/26 04:39:35;;;;;;;11.70;7.60;;;;;;;10.17;90.82;99099.54;109294;1274;23617;-68
2022/09/26 04:42:02;;;;;;;;;;;;;;;10.17;90.78;99099.50;109196;1274;138170;-68
2022/09/26 04:44:29;;;;;;;11.10;6.80;;;;;;;10.18;90.65;99096.13;109291;1274;22456;-68
2022/09/26 04:46:56;;;;;;;9.50;7.10;;;;;;;10.19;90.62;99088.69;109192;1277;138087;-68
2022/09/26 04:49:31;;;;;;;11.00;8.00;;;;;;;10.21;90.52;99086.20;109331;1274;22602;-68
2022/09/26 04:51:58;;;;;;;26.50;7.50;;;;;;;10.21;90.63;99085.33;109245;1276;22223;-68
2022/09/26 04:54:25;;;;;;;7.80;6.70;;;;;;;10.22;90.50;99088.71;109116;1274;139519;-68
2022/09/26 04:56:52;;;;;;;10.50;7.70;;;;;;;10.23;90.49;99083.70;109338;1274;22437;-68
2022/09/26 04:59:19;;;;;;;9.20;7.50;;;;;;;10.23;90.27;99083.70;109209;1274;137934;-68
2022/09/26 05:01:55;;;;;;;9.30;7.60;;;;;;;10.23;90.64;99089.86;109204;1275;23608;-68
2022/09/26 05:04:26;;;;;;;12.40;8.10;;;;;;;10.24;90.45;99096.29;109145;1274;138539;-68
2022/09/26 05:06:56;;;;;;;13.20;8.90;;;;;;;10.24;90.67;99091.48;109264;1274;22548;-68
2022/09/26 05:09:26;;;;;;;11.80;7.90;;;;;;;10.25;90.54;99096.05;109238;1275;22510;-68
2022/09/26 05:12:12;;;;;;;11.20;7.90;;;;;;;10.25;90.54;99104.11;109165;1274;138013;-68
2022/09/26 05:14:40;;;;;;;13.20;9.20;;;;;;;10.26;90.59;99106.84;109207;1274;22480;-68
2022/09/26 05:17:09;;;;;;;;;;;;;;;10.28;90.69;99107.77;109136;1276;137819;-68
2022/09/26 05:19:36;;;;;;;12.30;9.90;;;;;;;10.31;90.61;99105.29;109167;1274;22587;-68
2022/09/26 05:22:22;;;;;;;15.30;13.70;;;;;;;10.34;90.51;99093.65;109175;1274;138021;-68
2022/09/26 05:27:34;;;;;;;12.60;9.80;;;;;;;10.35;90.65;99090.13;109243;1274;22454;-67
2022/09/26 05:30:01;;;;;;;;;;;;;;;10.35;90.77;99091.75;109124;1275;138080;-67
2022/09/26 05:32:28;;;;;;;10.60;8.80;;;;;;;10.35;90.67;99089.14;109066;1274;22424;-67
2022/09/26 05:34:55;;;;;;;;;;;;;;;10.34;90.81;99088.86;109150;1274;138307;-68
2022/09/26 05:37:23;;;;;;;;;;;;;;;10.35;90.88;99084.55;109245;1274;22530;-67
2022/09/26 05:42:38;;;;;;;12.60;8.50;;;;;;;10.34;90.84;99083.63;109053;1274;138791;-69
2022/09/26 05:45:05;;;;;;;;;;;;;;;10.36;90.94;99084.19;109265;1274;22504;-69
2022/09/26 05:47:34;;;;;;;12.90;8.40;;;;;;;10.38;91.11;99080.48;109135;1274;124746;-69
2022/09/26 05:50:11;;;;;;;10.80;8.50;;;;;;;10.40;91.00;99078.63;109172;1276;22456;-69
2022/09/26 05:52:38;;;;;;;10.90;8.90;;;;;;;10.43;91.06;99073.57;109106;1274;139150;-69
2022/09/26 05:55:06;;;;;;;11.20;8.50;;;;;;;10.46;90.90;99069.67;107083;1275;23129;-69
2022/09/26 05:57:57;;;;;;;10.40;7.90;;;;;;;10.49;90.76;99073.83;109299;1274;22403;-69
2022/09/26 06:00:27;;;;;;;10.00;7.80;;;;;;;10.53;90.80;99076.38;109060;1277;139429;-70
2022/09/26 06:03:00;;;;;;;9.20;7.60;;;;;;;10.56;90.79;99076.33;109147;1277;22452;-69
2022/09/26 06:05:37;;;;;;;9.40;7.10;;;;;;;10.58;90.81;99077.59;109147;1274;138567;-69
2022/09/26 06:08:27;;;;;;;9.40;7.50;;;;;;;10.60;90.48;99082.56;109179;1274;22472;-69
2022/09/26 06:11:23;;;;;;;8.70;7.40;;;;;;;10.64;90.52;99084.53;108918;1274;137962;-70
2022/09/26 06:13:50;;;;;;;16.90;8.40;;;;;;;10.67;90.81;99086.66;109316;1274;22461;-69
2022/09/26 06:16:18;;;;;;;11.20;8.50;;;;;;;10.71;90.96;99084.59;109122;1276;139662;-69
2022/09/26 06:18:48;;;;;;;10.50;7.50;;;;;;;10.75;90.79;99089.52;109301;1274;22447;-69
2022/09/26 06:21:16;;;;;;;11.60;7.60;;;;;;;10.78;90.75;99088.88;109243;1274;22456;-69
2022/09/26 06:23:45;;;;;;;13.30;7.60;;;;;;;10.80;90.78;99088.83;109106;1277;139278;-70
2022/09/26 06:26:23;;;;;;;11.30;8.30;;;;;;;10.84;90.67;99090.23;109352;1274;22569;-70
2022/09/26 06:28:56;;;;;;;;;;;;;;;10.87;90.77;99092.73;109209;1274;139224;-69
2022/09/26 06:31:25;;;;;;;10.50;7.90;;;;;;;10.89;90.66;99100.16;109276;1274;22629;-69
2022/09/26 06:34:15;;;;;;;12.30;9.20;;;;;;;10.90;90.43;99103.05;108959;1276;138363;-68
2022/09/26 06:37:02;;;;;;;14.10;9.10;;;;;;;10.91;90.37;99097.07;109143;1276;22418;-68
2022/09/26 06:39:34;;;;;;;10.40;8.40;;;;;;;10.92;90.28;99099.19;108516;1275;22560;-67
2022/09/26 06:42:04;;;;;;;12.40;9.20;;;;;;;10.91;90.21;99098.05;109173;1274;138265;-67
2022/09/26 06:44:47;;;;;;;11.00;7.90;;;;;;;10.89;89.85;99090.68;109290;1274;22662;-68
2022/09/26 06:47:13;;;;;;;10.90;8.30;;;;;;;10.89;90.18;99082.56;109180;1275;138015;-68
2022/09/26 06:49:41;;;;;;;13.60;9.90;;;;;;;10.90;90.16;99082.56;109235;1275;22481;-68
2022/09/26 06:52:20;;;;;;;19.30;10.30;;;;;;;10.92;90.10;99091.19;109161;1274;139297;-67
2022/09/26 06:54:47;;;;;;;;;;;;;;;10.92;89.77;99093.31;109321;1274;22609;-67
2022/09/26 06:57:14;;;;;;;22.00;14.10;;;;;;;10.93;90.03;99095.44;109421;1274;23522;-67
2022/09/26 06:59:41;;;;;;;18.00;13.20;;;;;;;10.94;89.88;99101.81;109170;1274;139120;-67
2022/09/26 07:02:16;;;;;;;14.30;9.70;;;;;;;10.95;89.52;99108.46;109259;1275;22445;-68
2022/09/26 07:05:01;;;;;;;9.70;7.30;;;;;;;10.96;89.48;99113.52;109130;1274;139075;-68
2022/09/26 07:07:41;;;;;;;9.40;7.40;;;;;;;10.97;89.15;99107.20;109374;1274;22459;-68
2022/09/26 07:10:14;;;;;;;10.90;7.20;;;;;;;10.99;89.14;99108.17;109341;1274;22455;-68
2022/09/26 07:12:50;;;;;;;9.20;7.30;;;;;;;11.01;89.20;99107.48;109247;1274;22413;-68
2022/09/26 07:15:17;;;;;;;12.60;8.00;;;;;;;11.04;88.81;99106.73;109372;1274;22478;-68
2022/09/26 07:17:45;;;;;;;20.70;10.30;;;;;;;11.07;89.09;99101.45;109206;1274;138272;-68
2022/09/26 07:20:38;;;;;;;17.30;11.90;;;;;;;11.10;88.87;99092.39;109242;1274;22549;-69
2022/09/26 07:23:15;;;;;;;21.30;11.50;;;;;;;11.11;88.87;99093.04;109195;1274;139282;-69
2022/09/26 07:25:45;;;;;;;17.80;10.40;;;;;;;11.12;88.20;99088.89;109225;1276;22474;-71
2022/09/26 07:28:12;;;;;;;21.60;10.40;;;;;;;11.12;88.28;99088.45;109283;1276;22457;-72
2022/09/26 07:30:42;;;;;;;12.80;7.90;;;;;;;11.13;88.12;99084.05;109230;1275;22467;-72
2022/09/26 07:33:14;;;;;;;15.30;9.90;;;;;;;11.14;87.71;99088.18;109284;1274;23611;-71
2022/09/26 07:35:44;;;;;;;15.70;9.00;;;;;;;11.15;87.49;99088.45;109188;1274;139890;-72
2022/09/26 07:38:12;;;;;;;11.60;7.70;;;;;;;11.17;87.33;99086.94;109259;1274;22438;-71
2022/09/26 07:40:39;;;;;;;12.00;8.50;;;;;;;11.18;87.10;99089.17;109170;1274;139021;-71
2022/09/26 07:43:06;;;;;;;17.50;9.00;;;;;;;11.21;87.02;99083.89;109270;1274;22440;-72
2022/09/26 07:51:40;;;;;;;21.10;12.00;;;;;;;11.30;86.67;99072.33;109322;1274;23156;-72
2022/09/26 07:54:11;;;;;;;17.80;10.10;;;;;;;11.34;86.65;99071.07;109148;1274;138793;-70
2022/09/26 07:57:07;;;;;;;19.90;10.30;;;;;;;11.39;86.59;99078.65;109126;1276;22485;-70
2022/09/26 07:59:57;;;;;;;15.10;9.10;;;;;;;11.44;86.80;99067.77;109017;1273;140993;-70
2022/09/26 08:02:41;;;;;;;18.60;10.10;;;;;;;11.51;86.57;99065.00;107695;1276;22562;-70
2022/09/26 08:05:09;;;;;;;15.50;9.00;;;;;;;11.56;86.54;99066.83;109177;1274;139642;-69
2022/09/26 08:07:36;;;;;;;11.70;7.70;;;;;;;11.63;86.35;99063.99;109333;1274;22425;-69
2022/09/26 08:10:18;;;;;;;9.80;7.60;;;;;;;11.69;86.23;99066.53;109309;1274;23558;-69
2022/09/26 08:13:08;;;;;;;11.70;7.80;;;;;;;11.77;85.81;99064.20;109351;1274;22565;-69
2022/09/26 08:16:05;;;;;;;13.40;7.20;;;;;;;11.85;85.69;99068.76;108931;1277;22451;-69
2022/09/26 08:18:36;;;;;;;10.10;6.90;;;;;;;11.90;85.06;99070.23;109180;1276;138324;-69
2022/09/26 08:21:04;;;;;;;8.30;6.60;;;;;;;11.94;84.46;99064.38;109157;1276;22416;-69
2022/09/26 08:23:32;;;;;;;9.10;5.30;;;;;;;11.99;84.00;99065.39;109130;1274;138042;-69
2022/09/26 08:26:22;;;;;;;;;;;;;;;12.03;83.81;99059.92;109321;1275;22600;-68
2022/09/26 08:28:55;;;;;;;9.90;6.70;;;;;;;12.08;84.01;99057.02;109201;1274;126629;-69
2022/09/26 08:31:22;;;;;;;;;;;;;;;12.11;84.13;99055.20;109337;1274;22496;-69
2022/09/26 08:33:49;;;;;;;10.30;6.10;;;;;;;12.14;83.59;99053.77;109249;1274;23322;-69
2022/09/26 08:36:15;;;;;;;;;;;;;;;12.18;83.26;99047.90;109199;1274;139300;-66
2022/09/26 08:38:58;;;;;;;11.40;7.30;;;;;;;12.21;83.31;99045.92;109205;1274;22512;-66
2022/09/26 08:41:59;;;;;;;10.00;6.70;;;;;;;12.27;83.28;99048.66;109180;1274;138768;-66
2022/09/26 08:48:43;;;;;;;14.10;7.60;;;;;;;12.43;82.63;99059.36;109229;1274;22264;-67
2022/09/26 08:51:16;;;;;;;10.40;7.00;;;;;;;12.48;82.35;99063.55;109163;1274;22438;-67
2022/09/26 08:53:55;;;;;;;11.80;7.40;;;;;;;12.53;82.23;99064.18;108943;1276;23449;-65
2022/09/26 08:56:30;;;;;;;11.80;7.60;;;;;;;12.58;82.19;99057.23;108572;1276;138696;-67
2022/09/26 08:58:57;;;;;;;9.20;7.10;;;;;;;12.65;82.47;99051.86;109074;1274;22486;-68
2022/09/26 09:01:29;;;;;;;9.70;6.50;;;;;;;12.71;82.51;99051.76;108986;1274;138776;-68
2022/09/26 09:04:22;;;;;;;9.10;7.20;;;;;;;12.79;82.46;99052.20;109152;1276;22575;-68
2022/09/26 09:06:56;;;;;;;8.90;7.10;;;;;;;12.86;82.30;99051.92;109224;1276;23120;-69
2022/09/26 09:09:23;;;;;;;8.30;6.60;;;;;;;12.93;81.86;99047.89;108850;1276;137926;-69
2022/09/26 09:12:18;;;;;;;11.30;7.70;;;;;;;13.01;81.63;99047.38;109166;1276;22481;-69
2022/09/26 09:15:15;;;;;;;8.80;7.10;;;;;;;13.07;81.07;99047.18;109056;1276;139415;-67
2022/09/26 09:18:28;;;;;;;10.10;7.50;;;;;;;13.15;80.65;99046.58;109247;1276;22444;-67
2022/09/26 09:22:04;;;;;;;12.70;7.40;;;;;;;13.22;80.70;99046.44;108859;1274;138433;-67
2022/09/26 09:24:59;;;;;;;11.80;7.50;;;;;;;13.29;80.29;99047.94;109058;1277;22565;-67
2022/09/26 09:28:00;;;;;;;10.40;7.90;;;;;;;13.34;79.73;99054.86;108945;1276;140012;-68
2022/09/26 09:30:37;;;;;;;9.70;8.30;;;;;;;13.38;79.38;99056.58;109083;1277;22424;-66
2022/09/26 09:33:30;;;;;;;10.70;8.40;;;;;;;13.44;79.50;99057.27;109073;1277;138980;-69
2022/09/26 09:36:17;;;;;;;12.80;7.40;;;;;;;13.49;79.03;99058.06;109107;1276;22463;-69
2022/09/26 09:39:09;;;;;;;12.60;8.50;;;;;;;13.54;78.62;99059.39;109105;1276;138282;-68
2022/09/26 09:41:49;;;;;;;11.50;8.20;;;;;;;13.59;78.23;99056.91;108821;1277;23230;-69
2022/09/26 09:44:30;;;;;;;9.60;7.90;;;;;;;13.65;78.13;99054.79;108917;1277;138588;-73
2022/09/26 09:46:57;;;;;;;10.90;8.10;;;;;;;13.73;78.08;99052.23;109230;1276;22258;-71
2022/09/26 09:49:25;;;;;;;10.20;6.90;;;;;;;13.79;77.62;99050.09;108825;1276;138536;-71
2022/09/26 09:52:23;;;;;;;11.90;6.90;;;;;;;13.87;76.96;99047.09;109215;1276;23060;-72
2022/09/26 09:55:31;;;;;;;9.40;7.00;;;;;;;13.98;76.49;99044.06;109234;1274;22591;-71
2022/09/26 09:58:17;;;;;;;10.80;6.70;;;;;;;14.11;75.84;99038.44;108559;1281;22737;-72
2022/09/26 10:00:48;;;;;;;10.20;6.60;;;;;;;14.22;74.94;99034.46;108520;1281;22484;-72
2022/09/26 10:03:31;;;;;;;10.60;8.20;;;;;;;14.32;74.50;99033.40;108241;1280;139545;-71
2022/09/26 10:05:59;;;;;;;13.20;7.90;;;;;;;14.42;73.75;99027.26;108486;1281;22465;-71
2022/09/26 10:08:36;;;;;;;12.50;8.20;;;;;;;14.52;74.48;99020.92;108151;1282;139573;-71
2022/09/26 10:11:41;;;;;;;8.80;7.10;;;;;;;14.64;74.39;99019.93;108489;1283;22494;-70
2022/09/26 10:14:53;;;;;;;10.60;7.30;;;;;;;14.74;73.27;99013.03;108346;1281;137522;-71
2022/09/26 10:17:43;;;;;;;9.90;7.80;;;;;;;14.85;72.24;99009.79;108467;1281;22435;-72
2022/09/26 10:20:40;;;;;;;9.60;7.10;;;;;;;14.95;72.10;99006.95;108242;1281;139683;-72
2022/09/26 10:23:09;;;;;;;10.10;7.80;;;;;;;15.01;71.06;99006.95;108384;1282;22515;-72
2022/09/26 10:25:37;;;;;;;12.90;7.50;;;;;;;15.06;70.82;98996.88;108427;1281;138411;-71
2022/09/26 10:28:04;;;;;;;10.00;7.70;;;;;;;15.09;70.25;98988.10;108465;1281;23207;-72
2022/09/26 10:30:32;;;;;;;9.60;7.50;;;;;;;15.12;70.68;98980.92;108553;1281;22496;-69
2022/09/26 10:33:03;;;;;;;13.10;8.10;;;;;;;15.19;70.88;98976.12;108093;1282;138180;-70
2022/09/26 10:35:41;;;;;;;10.50;7.60;;;;;;;15.27;71.25;98977.52;108986;1276;22572;-70
2022/09/26 10:38:22;;;;;;;9.50;7.20;;;;;;;15.35;70.83;98970.47;109007;1276;138908;-70
2022/09/26 10:41:09;;;;;;;7.80;6.70;;;;;;;15.43;71.43;98967.84;109201;1276;22972;-70
2022/09/26 10:43:36;;;;;;;9.00;7.50;;;;;;;15.52;71.21;98961.52;108955;1276;138290;-70
2022/09/26 10:46:18;;;;;;;13.80;7.00;;;;;;;15.63;70.15;98963.41;109054;1274;23123;-70
2022/09/26 10:49:04;;;;;;;8.40;6.60;;;;;;;15.74;70.12;98963.91;109121;1277;22336;-70
2022/09/26 10:52:17;;;;;;;7.50;6.30;;;;;;;15.86;70.84;98959.89;109212;1276;23518;-71
2022/09/26 10:54:48;;;;;;;12.60;8.40;;;;;;;16.00;70.37;98954.98;109164;1276;22481;-68
2022/09/26 10:57:23;;;;;;;89.40;60.10;;;;;;;16.09;69.51;98954.28;109046;1276;137587;-72
2022/09/26 10:59:51;;;;;;;14.70;11.10;;;;;;;16.19;69.41;98956.48;109179;1276;23261;-72
2022/09/26 11:02:21;;;;;;;12.40;7.00;;;;;;;16.28;68.97;98951.63;108973;1276;138302;-72
2022/09/26 11:07:43;;;;;;;6.80;5.30;;;;;;;16.41;67.44;98948.48;108952;1276;137910;-71
2022/09/26 11:10:26;;;;;;;6.50;5.50;;;;;;;16.44;66.66;98942.99;109041;1276;23038;-70
2022/09/26 11:13:18;;;;;;;8.60;5.50;;;;;;;16.48;66.05;98938.23;109172;1276;22665;-71
2022/09/26 11:15:59;;;;;;;6.60;5.20;;;;;;;16.52;65.69;98935.88;109251;1276;22574;-71
2022/09/26 11:18:49;;;;;;;9.00;4.90;;;;;;;16.54;65.66;98939.84;109181;1274;22493;-72
2022/09/26 11:21:26;;;;;;;6.50;5.00;;;;;;;16.56;65.81;98931.08;108685;1276;137817;-72
2022/09/26 11:24:10;;;;;;;13.40;5.20;;;;;;;16.58;65.95;98923.35;109032;1277;23539;-72
2022/09/26 11:26:48;;;;;;;8.20;5.10;;;;;;;16.63;65.55;98917.70;109079;1276;22445;-70
2022/09/26 11:29:46;;;;;;;4.50;3.50;;;;;;;16.69;65.07;98915.04;109109;1276;22677;-72
2022/09/26 11:32:16;;;;;;;5.60;4.30;;;;;;;16.76;64.69;98915.57;109196;1276;23127;-71
2022/09/26 11:35:17;;;;;;;5.00;4.20;;;;;;;16.83;64.06;98920.29;109231;1274;22238;-71
2022/09/26 11:38:26;;;;;;;6.10;4.60;;;;;;;16.89;64.14;98930.10;109115;1276;22585;-72
2022/09/26 11:41:06;;;;;;;8.40;4.80;;;;;;;16.94;63.90;98935.58;105957;1277;139487;-70
2022/09/26 11:43:46;;;;;;;6.90;4.60;;;;;;;16.98;63.23;98931.36;109253;1276;22475;-71
2022/09/26 11:46:34;;;;;;;9.80;3.70;;;;;;;17.01;63.13;98930.25;108997;1276;139858;-71
2022/09/26 11:49:33;;;;;;;4.80;3.70;;;;;;;17.02;62.98;98935.33;108965;1277;22597;-72
2022/09/26 11:52:41;;;;;;;4.40;3.80;;;;;;;17.01;62.37;98932.98;108455;1281;138528;-71
2022/09/26 11:55:37;;;;;;;4.30;3.40;;;;;;;17.00;62.50;98935.13;108615;1280;22513;-71
2022/09/26 11:58:32;;;;;;;4.80;3.40;;;;;;;16.97;62.39;98934.14;108468;1280;138554;-71
2022/09/26 12:01:22;;;;;;;8.00;4.20;;;;;;;16.94;62.18;98939.42;108620;1281;23339;-71
2022/09/26 12:04:02;;;;;;;7.90;4.80;;;;;;;16.91;62.00;98936.04;108580;1281;137474;-71
2022/09/26 12:06:32;;;;;;;6.40;4.70;;;;;;;16.88;62.56;98935.20;108301;1283;22611;-71
2022/09/26 12:09:37;;;;;;;5.80;4.20;;;;;;;16.85;62.60;98934.45;108589;1281;22543;-71
2022/09/26 12:12:08;;;;;;;9.00;4.40;;;;;;;16.83;62.51;98934.56;108134;1286;22478;-71
2022/09/26 12:14:54;;;;;;;6.60;4.80;;;;;;;16.80;62.43;98929.55;108178;1287;22662;-71
2022/09/26 12:17:21;;;;;;;8.20;5.20;;;;;;;16.79;62.63;98931.23;107942;1287;138510;-73
2022/09/26 12:20:12;;;;;;;5.60;4.00;;;;;;;16.78;62.66;98932.52;108275;1286;22566;-73
2022/09/26 12:22:45;;;;;;;9.20;4.40;;;;;;;16.76;62.76;98928.88;108001;1287;22667;-73